createdAt,value
2022-09-16T00:02:08.407Z,16.15
2022-09-16T00:05:08.380Z,16.15
2022-09-16T00:08:08.379Z,16.15
2022-09-16T00:11:08.384Z,16.15
2022-09-16T00:14:08.383Z,16.15
2022-09-16T00:17:08.388Z,16.15
2022-09-16T00:20:08.384Z,16.1
2022-09-16T00:23:08.386Z,16.1
2022-09-16T00:26:08.391Z,16.1
2022-09-16T00:29:08.384Z,16.1
2022-09-16T00:32:08.381Z,16.05
2022-09-16T00:35:08.392Z,16.05
2022-09-16T00:38:08.381Z,16.05
2022-09-16T00:41:08.380Z,16.05
2022-09-16T00:44:08.378Z,16.05
2022-09-16T00:47:08.509Z,16.05
2022-09-16T00:50:08.381Z,16.05
2022-09-16T00:53:08.382Z,16.05
2022-09-16T00:56:08.390Z,16
2022-09-16T00:59:08.375Z,16
2022-09-16T01:02:08.410Z,15.95
2022-09-16T01:05:08.387Z,15.95
2022-09-16T01:08:08.384Z,15.95
2022-09-16T01:11:08.393Z,15.95
2022-09-16T01:14:08.397Z,15.95
2022-09-16T01:17:08.383Z,15.95
2022-09-16T01:20:08.377Z,15.9
2022-09-16T01:23:08.382Z,15.85
2022-09-16T01:26:08.388Z,15.85
2022-09-16T01:29:08.386Z,15.85
2022-09-16T01:32:08.388Z,15.85
2022-09-16T01:35:08.383Z,15.85
2022-09-16T01:38:08.381Z,15.8
2022-09-16T01:41:08.379Z,15.8
2022-09-16T01:44:08.391Z,15.8
2022-09-16T01:47:08.387Z,15.8
2022-09-16T01:50:08.381Z,15.8
2022-09-16T01:53:08.379Z,15.75
2022-09-16T01:56:08.385Z,15.75
2022-09-16T01:59:08.381Z,15.75
2022-09-16T02:02:08.435Z,15.75
2022-09-16T02:05:08.384Z,15.75
2022-09-16T02:08:08.385Z,15.75
2022-09-16T02:11:08.403Z,15.7
2022-09-16T02:14:08.383Z,15.7
2022-09-16T02:17:08.385Z,15.7
2022-09-16T02:20:08.389Z,15.7
2022-09-16T02:23:08.382Z,15.7
2022-09-16T02:26:08.384Z,15.65
2022-09-16T02:29:08.386Z,15.65
2022-09-16T02:32:08.384Z,15.65
2022-09-16T02:35:08.390Z,15.65
2022-09-16T02:38:08.380Z,15.65
2022-09-16T02:41:08.386Z,15.65
2022-09-16T02:44:08.386Z,15.65
2022-09-16T02:47:08.384Z,15.65
2022-09-16T02:50:08.393Z,15.6
2022-09-16T02:53:08.391Z,15.55
2022-09-16T02:56:08.385Z,15.55
2022-09-16T02:59:08.386Z,15.55
2022-09-16T03:02:08.451Z,15.55
2022-09-16T03:05:08.386Z,15.55
2022-09-16T03:08:08.389Z,15.55
2022-09-16T03:11:08.391Z,15.55
2022-09-16T03:14:08.378Z,15.5
2022-09-16T03:17:08.389Z,15.5
2022-09-16T03:20:08.395Z,15.5
2022-09-16T03:23:08.408Z,15.45
2022-09-16T03:26:08.384Z,15.45
2022-09-16T03:29:08.386Z,15.45
2022-09-16T03:32:08.394Z,15.45
2022-09-16T03:35:08.395Z,15.45
2022-09-16T03:38:08.385Z,15.45
2022-09-16T03:41:08.393Z,15.4
2022-09-16T03:44:08.387Z,15.4
2022-09-16T03:47:08.413Z,15.4
2022-09-16T03:50:08.395Z,15.4
2022-09-16T03:53:08.396Z,15.4
2022-09-16T03:56:08.399Z,15.4
2022-09-16T03:59:08.406Z,15.4
2022-09-16T04:02:08.388Z,15.35
2022-09-16T04:05:08.388Z,15.35
2022-09-16T04:08:08.392Z,15.35
2022-09-16T04:11:08.396Z,15.35
2022-09-16T04:14:08.388Z,15.35
2022-09-16T04:17:08.391Z,15.35
2022-09-16T04:20:08.396Z,15.35
2022-09-16T04:23:08.391Z,15.35
2022-09-16T04:26:08.405Z,15.3
2022-09-16T04:29:08.404Z,15.3
2022-09-16T04:32:08.386Z,15.3
2022-09-16T04:35:08.394Z,15.25
2022-09-16T04:38:08.398Z,15.25
2022-09-16T04:41:08.398Z,15.25
2022-09-16T04:44:08.393Z,15.25
2022-09-16T04:47:08.394Z,15.25
2022-09-16T04:50:08.394Z,15.2
2022-09-16T04:53:08.396Z,15.2
2022-09-16T04:56:08.399Z,15.2
2022-09-16T04:59:08.388Z,15.2
2022-09-16T05:02:08.393Z,15.2
2022-09-16T05:05:08.396Z,15.2
2022-09-16T05:08:08.399Z,15.1
2022-09-16T05:11:08.395Z,15.1
2022-09-16T05:14:08.396Z,15.1
2022-09-16T05:17:08.394Z,15.1
2022-09-16T05:20:08.399Z,15.1
2022-09-16T05:23:08.395Z,15.1
2022-09-16T05:26:08.405Z,15.1
2022-09-16T05:29:08.395Z,15.1
2022-09-16T05:32:08.395Z,15.1
2022-09-16T05:35:08.392Z,15.1
2022-09-16T05:38:08.395Z,15.1
2022-09-16T05:41:08.397Z,15.1
2022-09-16T05:44:08.457Z,15.1
2022-09-16T05:47:08.399Z,15.15
2022-09-16T05:50:08.399Z,15.2
2022-09-16T05:53:08.395Z,15.2
2022-09-16T05:56:08.395Z,15.2
2022-09-16T05:59:08.399Z,15.2
2022-09-16T06:02:08.459Z,15.25
2022-09-16T06:05:08.396Z,15.25
2022-09-16T06:08:08.409Z,15.25
2022-09-16T06:11:08.393Z,15.25
2022-09-16T06:14:08.401Z,15.25
2022-09-16T06:17:08.396Z,15.3
2022-09-16T06:20:08.401Z,15.35
2022-09-16T06:23:08.405Z,15.35
2022-09-16T06:26:08.406Z,15.35
2022-09-16T06:29:08.399Z,15.3
2022-09-16T06:32:08.397Z,15.3
2022-09-16T06:35:08.396Z,15.3
2022-09-16T06:38:08.412Z,15.3
2022-09-16T06:41:08.411Z,15.3
2022-09-16T06:44:08.400Z,15.3
2022-09-16T06:47:08.408Z,15.3
2022-09-16T06:50:08.399Z,15.3
2022-09-16T06:53:08.401Z,15.3
2022-09-16T06:56:08.414Z,15.35
2022-09-16T06:59:08.405Z,15.35
2022-09-16T07:02:08.483Z,15.35
2022-09-16T07:05:08.408Z,15.35
2022-09-16T07:08:08.406Z,15.35
2022-09-16T07:11:08.414Z,15.35
2022-09-16T07:14:08.412Z,15.35
2022-09-16T07:17:08.492Z,15.4
2022-09-16T07:20:08.409Z,15.4
2022-09-16T07:23:08.414Z,15.4
2022-09-16T07:26:08.423Z,15.4
2022-09-16T07:29:08.413Z,15.45
2022-09-16T07:32:08.415Z,15.45
2022-09-16T07:35:08.411Z,15.45
2022-09-16T07:38:08.409Z,15.5
2022-09-16T07:41:08.415Z,15.5
2022-09-16T07:44:08.417Z,15.5
2022-09-16T07:47:08.415Z,15.65
2022-09-16T07:50:08.412Z,15.65
2022-09-16T07:53:08.421Z,15.75
2022-09-16T07:56:08.416Z,15.8
2022-09-16T07:59:08.424Z,15.8
2022-09-16T08:02:08.497Z,15.9
2022-09-16T08:05:08.416Z,15.95
2022-09-16T08:08:08.423Z,15.95
2022-09-16T08:11:08.415Z,15.95
2022-09-16T08:14:08.423Z,16.15
2022-09-16T08:17:08.410Z,16.25
2022-09-16T08:20:08.423Z,16.35
2022-09-16T08:23:08.419Z,16.55
2022-09-16T08:26:08.441Z,17
2022-09-16T08:29:10.009Z,17.2
2022-09-16T08:32:08.420Z,17.25
2022-09-16T08:35:08.415Z,17.15
2022-09-16T08:38:08.417Z,17.2
2022-09-16T08:41:08.413Z,17.2
2022-09-16T08:44:08.423Z,17.15
2022-09-16T08:47:08.421Z,17.15
2022-09-16T08:50:08.414Z,17.35
2022-09-16T08:53:08.414Z,17.6
2022-09-16T08:56:08.419Z,18
2022-09-16T08:59:08.424Z,18.25
2022-09-16T09:02:09.549Z,18.6
2022-09-16T09:05:08.425Z,18.75
2022-09-16T09:08:08.422Z,18.85
2022-09-16T09:11:08.413Z,19
2022-09-16T09:14:08.429Z,19
2022-09-16T09:17:08.421Z,19.05
2022-09-16T09:20:08.420Z,18.95
2022-09-16T09:23:08.425Z,18.9
2022-09-16T09:26:08.424Z,18.9
2022-09-16T09:29:08.421Z,18.85
2022-09-16T09:32:08.525Z,18.75
2022-09-16T09:35:08.421Z,18.65
2022-09-16T09:38:08.426Z,18.5
2022-09-16T09:41:08.424Z,18.4
2022-09-16T09:44:08.427Z,18.5
2022-09-16T09:47:08.439Z,18.7
2022-09-16T09:50:08.432Z,18.85
2022-09-16T09:53:08.443Z,18.95
2022-09-16T09:56:08.429Z,18.95
2022-09-16T09:59:08.428Z,18.8
2022-09-16T10:02:08.486Z,18.6
2022-09-16T10:05:08.430Z,18.45
2022-09-16T10:08:09.989Z,18.45
2022-09-16T10:11:08.426Z,18.2
2022-09-16T10:14:08.424Z,18.15
2022-09-16T10:17:08.430Z,18.05
2022-09-16T10:20:08.427Z,17.9
2022-09-16T10:23:08.427Z,17.85
2022-09-16T10:26:08.435Z,17.85
2022-09-16T10:29:08.430Z,17.8
2022-09-16T10:32:08.432Z,17.75
2022-09-16T10:35:08.450Z,17.7
2022-09-16T10:38:08.428Z,17.65
2022-09-16T10:41:08.433Z,17.65
2022-09-16T10:44:08.428Z,17.55
2022-09-16T10:47:08.435Z,17.6
2022-09-16T10:50:08.437Z,17.6
2022-09-16T10:53:08.445Z,17.6
2022-09-16T10:56:08.429Z,17.55
2022-09-16T10:59:08.431Z,17.55
2022-09-16T11:02:08.839Z,17.55
2022-09-16T11:05:08.437Z,17.55
2022-09-16T11:08:08.435Z,17.55
2022-09-16T11:11:11.130Z,17.55
2022-09-16T11:14:08.432Z,17.55
2022-09-16T11:17:08.438Z,17.65
2022-09-16T11:20:08.442Z,17.65
2022-09-16T11:23:08.441Z,17.65
2022-09-16T11:26:08.441Z,17.65
2022-09-16T11:29:08.438Z,17.65
2022-09-16T11:32:08.433Z,17.8
2022-09-16T11:35:08.451Z,17.85
2022-09-16T11:38:08.437Z,17.95
2022-09-16T11:41:08.438Z,18.05
2022-09-16T11:44:08.436Z,18.05
2022-09-16T11:47:08.434Z,18.05
2022-09-16T11:50:08.441Z,18
2022-09-16T11:53:09.103Z,18
2022-09-16T11:56:08.441Z,17.9
2022-09-16T11:59:08.457Z,17.75
2022-09-16T12:02:08.513Z,17.65
2022-09-16T12:05:08.441Z,17.5
2022-09-16T12:08:08.441Z,17.35
2022-09-16T12:11:08.440Z,17.15
2022-09-16T12:14:08.579Z,17.05
2022-09-16T12:17:08.440Z,16.95
2022-09-16T12:20:08.447Z,16.85
2022-09-16T12:23:08.438Z,16.7
2022-09-16T12:26:08.446Z,16.65
2022-09-16T12:29:08.440Z,16.6
2022-09-16T12:32:08.440Z,16.55
2022-09-16T12:35:08.444Z,16.55
2022-09-16T12:38:08.452Z,16.6
2022-09-16T12:41:08.467Z,16.6
2022-09-16T12:44:17.398Z,16.6
2022-09-16T12:47:08.450Z,16.65
2022-09-16T12:50:08.470Z,16.6
2022-09-16T12:53:08.449Z,16.7
2022-09-16T12:56:08.453Z,16.75
2022-09-16T12:59:08.439Z,16.75
2022-09-16T13:02:08.495Z,16.8
2022-09-16T13:05:08.447Z,16.85
2022-09-16T13:08:08.449Z,16.9
2022-09-16T13:14:08.446Z,16.95
2022-09-16T13:17:08.451Z,17
2022-09-16T13:20:08.453Z,17
2022-09-16T13:23:08.456Z,17.1
2022-09-16T13:26:08.450Z,17.1
2022-09-16T13:29:08.457Z,17.1
2022-09-16T13:32:08.455Z,17.1
2022-09-16T13:35:08.448Z,17.15
2022-09-16T13:38:08.448Z,17.25
2022-09-16T13:41:08.447Z,17.3
2022-09-16T13:44:08.448Z,17.3
2022-09-16T13:47:08.454Z,17.3
2022-09-16T13:50:08.451Z,17.35
2022-09-16T13:53:08.450Z,17.3
2022-09-16T13:56:08.451Z,17.25
2022-09-16T13:59:08.454Z,17.15
2022-09-16T14:02:08.555Z,17.1
2022-09-16T14:05:08.457Z,17
2022-09-16T14:08:08.453Z,16.95
2022-09-16T14:11:08.454Z,16.85
2022-09-16T14:14:12.564Z,16.75
2022-09-16T14:17:08.459Z,16.65
2022-09-16T14:20:08.458Z,16.6
2022-09-16T14:23:08.459Z,16.55
2022-09-16T14:26:08.466Z,16.45
2022-09-16T14:29:08.454Z,16.4
2022-09-16T14:32:08.461Z,16.35
2022-09-16T14:35:08.470Z,16.35
2022-09-16T14:38:14.260Z,16.35
2022-09-16T14:41:08.469Z,16.3
2022-09-16T14:44:08.463Z,16.3
2022-09-16T14:47:09.491Z,16.3
2022-09-16T14:50:08.480Z,16.3
2022-09-16T14:53:08.466Z,16.3
2022-09-16T14:56:08.475Z,16.3
2022-09-16T14:59:08.475Z,16.3
2022-09-16T15:02:08.495Z,16.3
2022-09-16T15:05:08.471Z,16.3
2022-09-16T15:08:13.962Z,16.3
2022-09-16T15:11:19.276Z,16.3
2022-09-16T15:14:08.473Z,16.4
2022-09-16T15:17:08.485Z,16.4
2022-09-16T15:20:08.474Z,16.4
2022-09-16T15:23:12.285Z,16.35
2022-09-16T15:26:08.499Z,16.35
2022-09-16T15:29:08.478Z,16.3
2022-09-16T15:32:08.472Z,16.25
2022-09-16T15:35:08.469Z,16.2
2022-09-16T15:38:08.476Z,16.1
2022-09-16T15:41:08.483Z,16.05
2022-09-16T15:44:08.669Z,15.95
2022-09-16T15:47:08.480Z,15.95
2022-09-16T15:50:08.486Z,15.95
2022-09-16T15:53:08.473Z,15.85
2022-09-16T15:56:08.486Z,15.75
2022-09-16T15:59:08.484Z,15.7
2022-09-16T16:02:08.607Z,15.65
2022-09-16T16:05:08.483Z,15.6
2022-09-16T16:08:10.018Z,15.5
2022-09-16T16:11:08.480Z,15.45
2022-09-16T16:14:08.484Z,15.4
2022-09-16T16:17:13.027Z,15.35
2022-09-16T16:20:08.478Z,15.3
2022-09-16T16:23:08.706Z,15.25
2022-09-16T16:26:08.481Z,15.25
2022-09-16T16:29:08.479Z,15.2
2022-09-16T16:32:08.481Z,15.2
2022-09-16T16:35:08.492Z,15.15
2022-09-16T16:38:08.482Z,15.15
2022-09-16T16:41:08.481Z,15.1
2022-09-16T16:44:08.487Z,15.1
2022-09-16T16:47:08.484Z,15.05
2022-09-16T16:50:08.497Z,14.95
2022-09-16T16:53:08.479Z,14.95
2022-09-16T16:56:11.343Z,14.95
2022-09-16T16:59:08.484Z,14.95
2022-09-16T17:02:08.552Z,14.9
2022-09-16T17:05:08.485Z,14.85
2022-09-16T17:08:08.485Z,14.85
2022-09-16T17:11:08.480Z,14.8
2022-09-16T17:14:08.487Z,14.8
2022-09-16T17:17:08.493Z,14.75
2022-09-16T17:20:08.492Z,14.7
2022-09-16T17:23:08.488Z,14.7
2022-09-16T17:26:08.493Z,14.7
2022-09-16T17:29:13.422Z,14.6
2022-09-16T17:32:08.492Z,14.6
2022-09-16T17:35:08.494Z,14.55
2022-09-16T17:38:08.485Z,14.5
2022-09-16T17:41:08.500Z,14.45
2022-09-16T17:44:08.497Z,14.45
2022-09-16T17:47:08.492Z,14.45
2022-09-16T17:50:08.489Z,14.4
2022-09-16T17:53:08.494Z,14.4
2022-09-16T17:56:08.491Z,14.3
2022-09-16T17:59:08.490Z,14.3
2022-09-16T18:02:08.503Z,14.3
2022-09-16T18:05:08.589Z,14.25
2022-09-16T18:08:08.496Z,14.2
2022-09-16T18:11:08.499Z,14.2
2022-09-16T18:14:08.499Z,14.15
2022-09-16T18:17:08.526Z,14.15
2022-09-16T18:20:08.501Z,14.1
2022-09-16T18:23:08.495Z,14.05
2022-09-16T18:26:08.504Z,14.05
2022-09-16T18:29:10.301Z,14.05
2022-09-16T18:32:08.492Z,14
2022-09-16T18:35:08.498Z,13.95
2022-09-16T18:38:08.499Z,13.95
2022-09-16T18:41:08.503Z,13.95
2022-09-16T18:44:08.502Z,13.95
2022-09-16T18:47:08.504Z,13.9
2022-09-16T18:50:08.514Z,13.85
2022-09-16T18:53:08.520Z,13.85
2022-09-16T18:56:08.516Z,13.85
2022-09-16T18:59:20.827Z,13.85
2022-09-16T19:02:08.643Z,13.8
2022-09-16T19:05:08.536Z,13.75
2022-09-16T19:08:08.513Z,13.75
2022-09-16T19:11:08.512Z,13.75
2022-09-16T19:14:08.510Z,13.7
2022-09-16T19:17:08.553Z,13.7
2022-09-16T19:20:08.516Z,13.7
2022-09-16T19:23:08.517Z,13.65
2022-09-16T19:26:08.511Z,13.6
2022-09-16T19:29:08.513Z,13.6
2022-09-16T19:32:08.636Z,13.6
2022-09-16T19:35:08.530Z,13.6
2022-09-16T19:38:08.514Z,13.6
2022-09-16T19:41:08.517Z,13.55
2022-09-16T19:44:08.524Z,13.5
2022-09-16T19:47:08.534Z,13.5
2022-09-16T19:50:08.520Z,13.45
2022-09-16T19:53:08.515Z,13.45
2022-09-16T19:56:08.522Z,13.45
2022-09-16T19:59:08.525Z,13.45
2022-09-16T20:02:08.524Z,13.45
2022-09-16T20:05:09.206Z,13.45
2022-09-16T20:08:08.529Z,13.45
2022-09-16T20:11:08.527Z,13.45
2022-09-16T20:14:08.536Z,13.45
2022-09-16T20:17:08.562Z,13.4
2022-09-16T20:20:08.531Z,13.4
2022-09-16T20:23:08.565Z,13.35
2022-09-16T20:26:08.523Z,13.35
2022-09-16T20:29:08.536Z,13.35
2022-09-16T20:32:08.540Z,13.35
2022-09-16T20:35:08.572Z,13.35
2022-09-16T20:38:08.571Z,13.35
2022-09-16T20:41:08.531Z,13.35
2022-09-16T20:44:08.527Z,13.35
2022-09-16T20:47:08.524Z,13.3
2022-09-16T20:50:08.528Z,13.25
2022-09-16T20:53:08.525Z,13.25
2022-09-16T20:56:08.535Z,13.3
2022-09-16T20:59:08.634Z,13.35
2022-09-16T21:02:08.559Z,13.35
2022-09-16T21:05:08.534Z,13.35
2022-09-16T21:08:08.531Z,13.35
2022-09-16T21:11:08.533Z,13.35
2022-09-16T21:14:08.561Z,13.4
2022-09-16T21:17:08.532Z,13.4
2022-09-16T21:20:08.532Z,13.4
2022-09-16T21:23:08.537Z,13.4
2022-09-16T21:26:08.539Z,13.4
2022-09-16T21:29:08.539Z,13.4
2022-09-16T21:32:08.536Z,13.4
2022-09-16T21:35:08.531Z,13.4
2022-09-16T21:38:08.538Z,13.4
2022-09-16T21:41:08.530Z,13.4
2022-09-16T21:44:08.529Z,13.4
2022-09-16T21:47:08.535Z,13.4
2022-09-16T21:50:08.535Z,13.4
2022-09-16T21:53:08.532Z,13.35
2022-09-16T21:56:08.530Z,13.35
2022-09-16T21:59:08.534Z,13.35
2022-09-16T22:02:08.798Z,13.25
2022-09-16T22:05:08.553Z,13.2
2022-09-16T22:08:08.532Z,13.2
2022-09-16T22:11:08.542Z,13.2
2022-09-16T22:14:08.537Z,13.15
2022-09-16T22:17:08.602Z,13.1
2022-09-16T22:20:08.556Z,13.1
2022-09-16T22:23:08.535Z,13.05
2022-09-16T22:26:08.532Z,13
2022-09-16T22:29:08.530Z,13
2022-09-16T22:32:08.535Z,13
2022-09-16T22:35:08.543Z,12.95
2022-09-16T22:38:08.536Z,12.95
2022-09-16T22:41:08.537Z,12.9
2022-09-16T22:44:08.530Z,12.9
2022-09-16T22:47:08.531Z,12.9
2022-09-16T22:50:08.549Z,12.9
2022-09-16T22:53:08.533Z,12.8
2022-09-16T22:56:08.541Z,12.8
2022-09-16T22:59:08.590Z,12.8
2022-09-16T23:02:08.567Z,12.8
2022-09-16T23:05:08.552Z,12.75
2022-09-16T23:08:08.540Z,12.75
2022-09-16T23:11:08.535Z,12.75
2022-09-16T23:14:08.542Z,12.75
2022-09-16T23:17:08.536Z,12.75
2022-09-16T23:20:08.545Z,12.75
2022-09-16T23:23:08.548Z,12.75
2022-09-16T23:26:08.545Z,12.7
2022-09-16T23:29:08.541Z,12.7
2022-09-16T23:32:08.573Z,12.7
2022-09-16T23:35:08.565Z,12.7
2022-09-16T23:38:08.548Z,12.65
2022-09-16T23:41:08.543Z,12.65
2022-09-16T23:44:08.552Z,12.6
2022-09-16T23:47:08.549Z,12.6
2022-09-16T23:50:08.556Z,12.6
2022-09-16T23:53:08.543Z,12.6
2022-09-16T23:56:08.549Z,12.6
2022-09-16T23:59:08.551Z,12.6
